Alyeska Resort
Hourly Weather - Mid Mountian Site
ALY_MID_HR 5/30/2016
CLICK TO VIEW GRAPH!!

        DATE  TIME   Air   H2o   H2o   New  Snow  BATT   Rel
                    Temp  Inch Since  Snow Depth  Volt  Hum%
                      F   1HR  0600   1HR         AVG   AVG

   5/30/2016 02:00    48  0.00  0.00  36.9 17.95 13.21    84
   5/30/2016 01:00    49  0.00  0.00  39.4 18.65 13.19    80
   5/29/2016 24:00    50  0.00  0.00  40.3 17.91 13.18    73
   5/29/2016 23:00    52  0.00  0.00  40.7 18.33 13.16    64
   5/29/2016 22:00    54  0.00  0.00  41.1 18.66 13.14    62
   5/29/2016 21:00    55  0.00  0.00  41.5 18.59 13.13    52
   5/29/2016 20:00    57  0.00  0.00  42.1 17.63 13.11    48
   5/29/2016 19:00    58  0.00  0.00  42.9 18.28 13.10    46
   5/29/2016 18:00    62  0.00  0.00  43.2 17.57 13.08    40
   5/29/2016 17:00    65  0.00  0.00  43.2 17.77 13.09    36
   5/29/2016 16:00    62  0.00  0.00  43.2 18.91 13.09    44
   5/29/2016 15:00    62  0.00  0.00  43.1 18.62 13.10    47
   5/29/2016 14:00    62  0.00  0.00  42.7 19.16 13.12    47
   5/29/2016 13:00    60  0.00  0.00  42.1 19.16 13.15    52
   5/29/2016 12:00    56  0.00  0.00  41.2 20.03 13.18    57
   5/29/2016 11:00    53  0.00  0.00  39.2 21.03 13.20    62
   5/29/2016 10:00    50  0.00  0.00  38.4 21.35 13.21    69
   5/29/2016 09:00    50  0.00  0.00  39.2 21.38 13.20    70
   5/29/2016 08:00    52  0.00  0.00  39.2 20.40 13.20    66
   5/29/2016 07:00    51  0.00  0.00  39.9 20.44 13.19    65
   5/29/2016 06:00    52  0.00  0.00  40.1 20.62 13.19    64
   5/29/2016 05:00    53  0.00  0.00  40.0 20.73 13.18    58
   5/29/2016 04:00    52  0.00  0.00  40.0 20.60 13.18    58
   5/29/2016 03:00    53  0.00  0.00  40.3 21.26 13.18    55


CLICK TO VIEW GRAPH!!